sensor_id;sensor_type;location;lat;lon;timestamp;temperature;humidity
11107;DHT22;5607;48.302;14.294;2023-04-28T00:02:20;10.10;99.90
11107;DHT22;5607;48.302;14.294;2023-04-28T00:05:06;10.10;99.90
11107;DHT22;5607;48.302;14.294;2023-04-28T00:07:52;10.10;99.90
11107;DHT22;5607;48.302;14.294;2023-04-28T00:10:39;10.10;99.90
11107;DHT22;5607;48.302;14.294;2023-04-28T00:13:26;10.00;99.90
11107;DHT22;5607;48.302;14.294;2023-04-28T00:16:13;10.00;99.90
11107;DHT22;5607;48.302;14.294;2023-04-28T00:18:59;10.00;99.90
11107;DHT22;5607;48.302;14.294;2023-04-28T00:21:45;10.00;99.90
11107;DHT22;5607;48.302;14.294;2023-04-28T00:24:32;10.00;99.90
11107;DHT22;5607;48.302;14.294;2023-04-28T00:27:18;10.10;99.90
11107;DHT22;5607;48.302;14.294;2023-04-28T00:30:05;10.00;99.90
11107;DHT22;5607;48.302;14.294;2023-04-28T00:32:54;10.10;99.90
11107;DHT22;5607;48.302;14.294;2023-04-28T00:35:40;10.10;99.90
11107;DHT22;5607;48.302;14.294;2023-04-28T00:38:27;10.10;99.90
11107;DHT22;5607;48.302;14.294;2023-04-28T00:41:13;10.10;99.90
11107;DHT22;5607;48.302;14.294;2023-04-28T00:44:00;10.00;99.90
11107;DHT22;5607;48.302;14.294;2023-04-28T00:46:46;10.00;99.90
11107;DHT22;5607;48.302;14.294;2023-04-28T00:49:33;10.00;99.90
11107;DHT22;5607;48.302;14.294;2023-04-28T00:52:20;10.00;99.90
11107;DHT22;5607;48.302;14.294;2023-04-28T00:55:07;9.90;99.90
11107;DHT22;5607;48.302;14.294;2023-04-28T00:57:54;9.90;99.90
11107;DHT22;5607;48.302;14.294;2023-04-28T01:00:41;9.90;99.90
11107;DHT22;5607;48.302;14.294;2023-04-28T01:03:27;9.90;99.90
11107;DHT22;5607;48.302;14.294;2023-04-28T01:06:14;9.90;99.90
11107;DHT22;5607;48.302;14.294;2023-04-28T01:09:01;9.90;99.90
11107;DHT22;5607;48.302;14.294;2023-04-28T01:11:47;9.90;99.90
11107;DHT22;5607;48.302;14.294;2023-04-28T01:14:33;9.90;99.90
11107;DHT22;5607;48.302;14.294;2023-04-28T01:17:20;10.00;99.90
11107;DHT22;5607;48.302;14.294;2023-04-28T01:20:06;9.90;99.90
11107;DHT22;5607;48.302;14.294;2023-04-28T01:22:53;10.00;99.90
11107;DHT22;5607;48.302;14.294;2023-04-28T01:25:39;10.00;99.90
11107;DHT22;5607;48.302;14.294;2023-04-28T01:28:26;10.00;99.90
11107;DHT22;5607;48.302;14.294;2023-04-28T01:31:12;10.10;99.90
11107;DHT22;5607;48.302;14.294;2023-04-28T01:33:58;10.10;99.90
11107;DHT22;5607;48.302;14.294;2023-04-28T01:36:44;10.00;99.90
11107;DHT22;5607;48.302;14.294;2023-04-28T01:39:31;10.00;99.90
11107;DHT22;5607;48.302;14.294;2023-04-28T01:42:17;10.00;99.90
11107;DHT22;5607;48.302;14.294;2023-04-28T01:45:03;10.00;99.90
11107;DHT22;5607;48.302;14.294;2023-04-28T01:47:50;10.00;99.90
11107;DHT22;5607;48.302;14.294;2023-04-28T01:50:36;10.10;99.90
11107;DHT22;5607;48.302;14.294;2023-04-28T01:53:23;10.20;99.90
11107;DHT22;5607;48.302;14.294;2023-04-28T01:56:10;10.30;99.90
11107;DHT22;5607;48.302;14.294;2023-04-28T01:58:56;10.20;99.90
11107;DHT22;5607;48.302;14.294;2023-04-28T02:01:42;10.10;99.90
11107;DHT22;5607;48.302;14.294;2023-04-28T02:04:29;10.10;99.90
11107;DHT22;5607;48.302;14.294;2023-04-28T02:07:15;10.10;99.90
11107;DHT22;5607;48.302;14.294;2023-04-28T02:10:01;10.10;99.90
11107;DHT22;5607;48.302;14.294;2023-04-28T02:12:47;10.10;99.90
11107;DHT22;5607;48.302;14.294;2023-04-28T02:15:38;10.10;99.90
11107;DHT22;5607;48.302;14.294;2023-04-28T02:18:24;10.10;99.90
11107;DHT22;5607;48.302;14.294;2023-04-28T02:21:10;10.10;99.90
11107;DHT22;5607;48.302;14.294;2023-04-28T02:23:57;10.10;99.90
11107;DHT22;5607;48.302;14.294;2023-04-28T02:26:43;10.20;99.90
11107;DHT22;5607;48.302;14.294;2023-04-28T02:29:29;10.10;99.90
11107;DHT22;5607;48.302;14.294;2023-04-28T02:32:16;10.10;99.90
11107;DHT22;5607;48.302;14.294;2023-04-28T02:35:03;10.10;99.90
11107;DHT22;5607;48.302;14.294;2023-04-28T02:37:50;10.00;99.90
11107;DHT22;5607;48.302;14.294;2023-04-28T02:40:37;10.00;99.90
11107;DHT22;5607;48.302;14.294;2023-04-28T02:43:23;9.90;99.90
11107;DHT22;5607;48.302;14.294;2023-04-28T02:46:09;9.90;99.90
11107;DHT22;5607;48.302;14.294;2023-04-28T02:48:56;9.80;99.90
11107;DHT22;5607;48.302;14.294;2023-04-28T02:51:42;9.80;99.90
11107;DHT22;5607;48.302;14.294;2023-04-28T02:54:28;9.90;99.90
11107;DHT22;5607;48.302;14.294;2023-04-28T02:57:15;9.90;99.90
11107;DHT22;5607;48.302;14.294;2023-04-28T03:00:01;10.00;99.90
11107;DHT22;5607;48.302;14.294;2023-04-28T03:02:47;9.90;99.90
11107;DHT22;5607;48.302;14.294;2023-04-28T03:05:33;9.80;99.90
11107;DHT22;5607;48.302;14.294;2023-04-28T03:08:20;9.80;99.90
11107;DHT22;5607;48.302;14.294;2023-04-28T03:11:06;9.80;99.90
11107;DHT22;5607;48.302;14.294;2023-04-28T03:13:52;9.90;99.90
11107;DHT22;5607;48.302;14.294;2023-04-28T03:16:38;9.90;99.90
11107;DHT22;5607;48.302;14.294;2023-04-28T03:19:25;9.90;99.90
11107;DHT22;5607;48.302;14.294;2023-04-28T03:22:11;9.80;99.90
11107;DHT22;5607;48.302;14.294;2023-04-28T03:24:57;9.80;99.90
11107;DHT22;5607;48.302;14.294;2023-04-28T03:27:43;9.80;99.90
11107;DHT22;5607;48.302;14.294;2023-04-28T03:30:30;9.80;99.90
11107;DHT22;5607;48.302;14.294;2023-04-28T03:33:16;9.80;99.90
11107;DHT22;5607;48.302;14.294;2023-04-28T03:36:02;9.70;99.90
11107;DHT22;5607;48.302;14.294;2023-04-28T03:38:49;9.70;99.90
11107;DHT22;5607;48.302;14.294;2023-04-28T03:41:35;9.70;99.90
11107;DHT22;5607;48.302;14.294;2023-04-28T03:44:21;9.60;99.90
11107;DHT22;5607;48.302;14.294;2023-04-28T03:47:08;9.50;99.90
11107;DHT22;5607;48.302;14.294;2023-04-28T03:49:54;9.50;99.90
11107;DHT22;5607;48.302;14.294;2023-04-28T03:52:41;9.40;99.90
11107;DHT22;5607;48.302;14.294;2023-04-28T03:55:28;9.40;99.90
11107;DHT22;5607;48.302;14.294;2023-04-28T03:58:14;9.40;99.90
11107;DHT22;5607;48.302;14.294;2023-04-28T04:01:00;9.40;99.90
11107;DHT22;5607;48.302;14.294;2023-04-28T04:03:47;9.50;99.90
11107;DHT22;5607;48.302;14.294;2023-04-28T04:06:33;9.50;99.90
11107;DHT22;5607;48.302;14.294;2023-04-28T04:09:19;9.50;99.90
11107;DHT22;5607;48.302;14.294;2023-04-28T04:12:06;9.50;99.90
11107;DHT22;5607;48.302;14.294;2023-04-28T04:14:52;9.60;99.90
11107;DHT22;5607;48.302;14.294;2023-04-28T04:17:38;9.60;99.90
11107;DHT22;5607;48.302;14.294;2023-04-28T04:20:25;9.70;99.90
11107;DHT22;5607;48.302;14.294;2023-04-28T04:23:11;9.70;99.90
11107;DHT22;5607;48.302;14.294;2023-04-28T04:25:57;9.70;99.90
11107;DHT22;5607;48.302;14.294;2023-04-28T04:28:43;9.70;99.90
11107;DHT22;5607;48.302;14.294;2023-04-28T04:31:30;9.70;99.90
11107;DHT22;5607;48.302;14.294;2023-04-28T04:34:16;9.70;99.90
11107;DHT22;5607;48.302;14.294;2023-04-28T04:37:03;9.80;99.90
11107;DHT22;5607;48.302;14.294;2023-04-28T04:39:49;9.90;99.90
11107;DHT22;5607;48.302;14.294;2023-04-28T04:42:35;10.00;99.90
11107;DHT22;5607;48.302;14.294;2023-04-28T04:45:21;10.00;99.90
11107;DHT22;5607;48.302;14.294;2023-04-28T04:48:08;10.10;99.90
11107;DHT22;5607;48.302;14.294;2023-04-28T04:50:54;10.20;99.90
11107;DHT22;5607;48.302;14.294;2023-04-28T04:53:40;10.30;99.90
11107;DHT22;5607;48.302;14.294;2023-04-28T04:56:26;10.30;99.90
11107;DHT22;5607;48.302;14.294;2023-04-28T04:59:13;10.40;99.90
11107;DHT22;5607;48.302;14.294;2023-04-28T05:01:59;10.50;99.90
11107;DHT22;5607;48.302;14.294;2023-04-28T05:04:45;10.50;99.90
11107;DHT22;5607;48.302;14.294;2023-04-28T05:07:32;10.60;99.90
11107;DHT22;5607;48.302;14.294;2023-04-28T05:10:18;10.80;99.90
11107;DHT22;5607;48.302;14.294;2023-04-28T05:13:04;10.90;99.90
11107;DHT22;5607;48.302;14.294;2023-04-28T05:15:51;11.00;99.90
11107;DHT22;5607;48.302;14.294;2023-04-28T05:18:37;11.10;99.90
11107;DHT22;5607;48.302;14.294;2023-04-28T05:21:23;11.20;99.90
11107;DHT22;5607;48.302;14.294;2023-04-28T05:24:09;11.10;99.90
11107;DHT22;5607;48.302;14.294;2023-04-28T05:26:57;11.10;99.90
11107;DHT22;5607;48.302;14.294;2023-04-28T05:29:43;11.10;99.90
11107;DHT22;5607;48.302;14.294;2023-04-28T05:32:29;11.10;99.90
11107;DHT22;5607;48.302;14.294;2023-04-28T05:35:16;11.20;99.90
11107;DHT22;5607;48.302;14.294;2023-04-28T05:38:02;11.30;99.90
11107;DHT22;5607;48.302;14.294;2023-04-28T05:40:49;11.30;99.90
11107;DHT22;5607;48.302;14.294;2023-04-28T05:43:35;11.30;99.90
11107;DHT22;5607;48.302;14.294;2023-04-28T05:46:22;11.50;99.90
11107;DHT22;5607;48.302;14.294;2023-04-28T05:49:08;11.60;99.90
11107;DHT22;5607;48.302;14.294;2023-04-28T05:51:55;11.80;99.90
11107;DHT22;5607;48.302;14.294;2023-04-28T05:54:42;12.20;99.90
11107;DHT22;5607;48.302;14.294;2023-04-28T05:57:28;12.40;99.90
11107;DHT22;5607;48.302;14.294;2023-04-28T06:00:15;12.70;99.90
11107;DHT22;5607;48.302;14.294;2023-04-28T06:03:02;12.80;99.90
11107;DHT22;5607;48.302;14.294;2023-04-28T06:05:48;13.00;99.90
11107;DHT22;5607;48.302;14.294;2023-04-28T06:08:34;13.20;99.90
11107;DHT22;5607;48.302;14.294;2023-04-28T06:11:21;13.20;99.90
11107;DHT22;5607;48.302;14.294;2023-04-28T06:14:07;13.20;99.90
11107;DHT22;5607;48.302;14.294;2023-04-28T06:16:53;13.30;99.90
11107;DHT22;5607;48.302;14.294;2023-04-28T06:19:39;13.30;99.90
11107;DHT22;5607;48.302;14.294;2023-04-28T06:22:26;13.40;99.90
11107;DHT22;5607;48.302;14.294;2023-04-28T06:25:12;13.50;99.90
11107;DHT22;5607;48.302;14.294;2023-04-28T06:27:58;13.50;99.90
11107;DHT22;5607;48.302;14.294;2023-04-28T06:30:45;13.60;99.90
11107;DHT22;5607;48.302;14.294;2023-04-28T06:33:32;13.60;99.90
11107;DHT22;5607;48.302;14.294;2023-04-28T06:36:18;13.60;99.90
11107;DHT22;5607;48.302;14.294;2023-04-28T06:39:05;13.50;99.90
11107;DHT22;5607;48.302;14.294;2023-04-28T06:41:51;13.50;99.90
11107;DHT22;5607;48.302;14.294;2023-04-28T06:44:38;13.60;99.90
11107;DHT22;5607;48.302;14.294;2023-04-28T06:47:24;13.60;99.90
11107;DHT22;5607;48.302;14.294;2023-04-28T06:50:10;13.60;99.90
11107;DHT22;5607;48.302;14.294;2023-04-28T06:52:56;13.70;99.90
11107;DHT22;5607;48.302;14.294;2023-04-28T06:55:43;13.80;99.90
11107;DHT22;5607;48.302;14.294;2023-04-28T06:58:30;14.10;99.90
11107;DHT22;5607;48.302;14.294;2023-04-28T07:01:16;14.40;99.90
11107;DHT22;5607;48.302;14.294;2023-04-28T07:04:02;14.60;99.90
11107;DHT22;5607;48.302;14.294;2023-04-28T07:06:49;15.10;99.90
11107;DHT22;5607;48.302;14.294;2023-04-28T07:09:35;15.30;99.90
11107;DHT22;5607;48.302;14.294;2023-04-28T07:12:21;15.20;99.90
11107;DHT22;5607;48.302;14.294;2023-04-28T07:15:08;15.30;99.90
11107;DHT22;5607;48.302;14.294;2023-04-28T07:17:54;15.40;99.90
11107;DHT22;5607;48.302;14.294;2023-04-28T07:20:40;15.50;99.90
11107;DHT22;5607;48.302;14.294;2023-04-28T07:23:26;15.60;99.90
11107;DHT22;5607;48.302;14.294;2023-04-28T07:26:13;15.80;99.90
11107;DHT22;5607;48.302;14.294;2023-04-28T07:29:01;16.00;99.90
11107;DHT22;5607;48.302;14.294;2023-04-28T07:31:47;16.20;99.90
11107;DHT22;5607;48.302;14.294;2023-04-28T07:34:34;16.20;99.90
11107;DHT22;5607;48.302;14.294;2023-04-28T07:37:20;16.40;99.90
11107;DHT22;5607;48.302;14.294;2023-04-28T07:40:07;16.30;99.90
11107;DHT22;5607;48.302;14.294;2023-04-28T07:42:53;16.50;99.90
11107;DHT22;5607;48.302;14.294;2023-04-28T07:45:39;16.40;99.90
11107;DHT22;5607;48.302;14.294;2023-04-28T07:48:26;16.60;99.90
11107;DHT22;5607;48.302;14.294;2023-04-28T07:51:12;16.70;99.90
11107;DHT22;5607;48.302;14.294;2023-04-28T07:53:58;16.70;99.90
11107;DHT22;5607;48.302;14.294;2023-04-28T07:56:45;16.80;99.90
11107;DHT22;5607;48.302;14.294;2023-04-28T07:59:32;16.80;99.90
11107;DHT22;5607;48.302;14.294;2023-04-28T08:02:18;16.80;99.90
11107;DHT22;5607;48.302;14.294;2023-04-28T08:05:05;16.90;99.90
11107;DHT22;5607;48.302;14.294;2023-04-28T08:07:54;17.00;99.90
11107;DHT22;5607;48.302;14.294;2023-04-28T08:10:40;17.00;99.90
11107;DHT22;5607;48.302;14.294;2023-04-28T08:13:28;16.90;99.90
11107;DHT22;5607;48.302;14.294;2023-04-28T08:16:15;16.90;99.90
11107;DHT22;5607;48.302;14.294;2023-04-28T08:19:02;16.80;99.90
11107;DHT22;5607;48.302;14.294;2023-04-28T08:21:48;16.80;99.90
11107;DHT22;5607;48.302;14.294;2023-04-28T08:24:35;16.70;99.90
11107;DHT22;5607;48.302;14.294;2023-04-28T08:27:21;16.90;99.90
11107;DHT22;5607;48.302;14.294;2023-04-28T08:30:08;17.10;99.90
11107;DHT22;5607;48.302;14.294;2023-04-28T08:32:55;17.00;99.90
11107;DHT22;5607;48.302;14.294;2023-04-28T08:35:41;17.00;99.90
11107;DHT22;5607;48.302;14.294;2023-04-28T08:38:27;17.30;99.90
11107;DHT22;5607;48.302;14.294;2023-04-28T08:41:14;17.30;99.90
11107;DHT22;5607;48.302;14.294;2023-04-28T08:44:00;17.40;99.90
11107;DHT22;5607;48.302;14.294;2023-04-28T08:46:48;17.60;99.90
11107;DHT22;5607;48.302;14.294;2023-04-28T08:49:34;17.70;99.90
11107;DHT22;5607;48.302;14.294;2023-04-28T08:52:22;17.60;99.90
11107;DHT22;5607;48.302;14.294;2023-04-28T08:55:10;17.40;99.90
11107;DHT22;5607;48.302;14.294;2023-04-28T08:57:56;17.50;99.90
11107;DHT22;5607;48.302;14.294;2023-04-28T09:00:43;17.60;99.90
11107;DHT22;5607;48.302;14.294;2023-04-28T09:03:29;17.60;99.90
11107;DHT22;5607;48.302;14.294;2023-04-28T09:06:16;17.70;99.90
11107;DHT22;5607;48.302;14.294;2023-04-28T09:12:08;18.20;99.90
11107;DHT22;5607;48.302;14.294;2023-04-28T09:14:56;18.30;99.90
11107;DHT22;5607;48.302;14.294;2023-04-28T09:17:46;18.40;99.90
11107;DHT22;5607;48.302;14.294;2023-04-28T09:20:34;18.40;99.90
11107;DHT22;5607;48.302;14.294;2023-04-28T09:23:20;18.50;99.90
11107;DHT22;5607;48.302;14.294;2023-04-28T09:26:07;18.50;99.90
11107;DHT22;5607;48.302;14.294;2023-04-28T09:28:54;18.70;99.90
11107;DHT22;5607;48.302;14.294;2023-04-28T09:32:38;18.90;99.90
11107;DHT22;5607;48.302;14.294;2023-04-28T09:35:05;19.00;99.90
11107;DHT22;5607;48.302;14.294;2023-04-28T09:37:57;18.90;99.90
11107;DHT22;5607;48.302;14.294;2023-04-28T09:40:50;19.00;99.90
11107;DHT22;5607;48.302;14.294;2023-04-28T09:43:36;18.80;99.90
11107;DHT22;5607;48.302;14.294;2023-04-28T09:46:27;18.70;99.90
11107;DHT22;5607;48.302;14.294;2023-04-28T09:49:14;18.60;99.90
11107;DHT22;5607;48.302;14.294;2023-04-28T09:52:12;18.30;99.90
11107;DHT22;5607;48.302;14.294;2023-04-28T09:54:59;18.10;99.90
11107;DHT22;5607;48.302;14.294;2023-04-28T09:57:46;17.90;99.90
11107;DHT22;5607;48.302;14.294;2023-04-28T10:00:34;17.70;99.90
11107;DHT22;5607;48.302;14.294;2023-04-28T10:03:21;17.60;99.90
11107;DHT22;5607;48.302;14.294;2023-04-28T10:06:09;17.50;99.90
11107;DHT22;5607;48.302;14.294;2023-04-28T10:08:55;17.50;99.90
11107;DHT22;5607;48.302;14.294;2023-04-28T10:11:43;17.50;99.90
11107;DHT22;5607;48.302;14.294;2023-04-28T10:14:30;17.50;99.90
11107;DHT22;5607;48.302;14.294;2023-04-28T10:17:16;17.60;99.90
11107;DHT22;5607;48.302;14.294;2023-04-28T10:20:02;17.60;99.90
11107;DHT22;5607;48.302;14.294;2023-04-28T10:26:10;17.70;99.90
11107;DHT22;5607;48.302;14.294;2023-04-28T10:28:57;17.60;99.90
11107;DHT22;5607;48.302;14.294;2023-04-28T10:34:48;17.50;99.90
11107;DHT22;5607;48.302;14.294;2023-04-28T10:40:46;17.70;99.90
11107;DHT22;5607;48.302;14.294;2023-04-28T10:43:36;17.90;99.90
11107;DHT22;5607;48.302;14.294;2023-04-28T10:46:24;17.90;99.90
11107;DHT22;5607;48.302;14.294;2023-04-28T10:49:10;17.80;99.90
11107;DHT22;5607;48.302;14.294;2023-04-28T10:51:56;17.90;99.90
11107;DHT22;5607;48.302;14.294;2023-04-28T10:54:50;17.80;99.90
11107;DHT22;5607;48.302;14.294;2023-04-28T11:07:22;17.50;99.90
11107;DHT22;5607;48.302;14.294;2023-04-28T11:10:08;17.50;99.90
11107;DHT22;5607;48.302;14.294;2023-04-28T11:16:02;17.50;99.90
11107;DHT22;5607;48.302;14.294;2023-04-28T11:18:51;17.30;99.90
11107;DHT22;5607;48.302;14.294;2023-04-28T11:21:38;17.30;99.90
11107;DHT22;5607;48.302;14.294;2023-04-28T11:24:25;17.10;99.90
11107;DHT22;5607;48.302;14.294;2023-04-28T11:27:12;16.70;99.90
11107;DHT22;5607;48.302;14.294;2023-04-28T11:30:21;16.70;99.90
11107;DHT22;5607;48.302;14.294;2023-04-28T11:33:08;16.70;99.90
11107;DHT22;5607;48.302;14.294;2023-04-28T11:35:55;16.60;99.90
11107;DHT22;5607;48.302;14.294;2023-04-28T11:38:42;16.60;99.90
11107;DHT22;5607;48.302;14.294;2023-04-28T11:41:28;16.60;99.90
11107;DHT22;5607;48.302;14.294;2023-04-28T11:44:18;16.60;99.90
11107;DHT22;5607;48.302;14.294;2023-04-28T11:47:05;16.60;99.90
11107;DHT22;5607;48.302;14.294;2023-04-28T11:49:51;16.50;99.90
11107;DHT22;5607;48.302;14.294;2023-04-28T11:52:47;16.60;99.90
11107;DHT22;5607;48.302;14.294;2023-04-28T11:55:34;16.40;99.90
11107;DHT22;5607;48.302;14.294;2023-04-28T11:58:20;16.10;99.90
11107;DHT22;5607;48.302;14.294;2023-04-28T12:01:11;16.00;99.90
11107;DHT22;5607;48.302;14.294;2023-04-28T12:03:57;15.80;99.90
11107;DHT22;5607;48.302;14.294;2023-04-28T12:06:44;15.90;99.90
11107;DHT22;5607;48.302;14.294;2023-04-28T12:09:30;15.90;99.90
11107;DHT22;5607;48.302;14.294;2023-04-28T12:12:29;16.00;99.90
11107;DHT22;5607;48.302;14.294;2023-04-28T12:15:19;16.00;99.90
11107;DHT22;5607;48.302;14.294;2023-04-28T12:18:09;15.80;99.90
11107;DHT22;5607;48.302;14.294;2023-04-28T12:20:56;15.40;99.90
11107;DHT22;5607;48.302;14.294;2023-04-28T12:23:42;15.10;99.90
11107;DHT22;5607;48.302;14.294;2023-04-28T12:26:29;15.10;99.90
11107;DHT22;5607;48.302;14.294;2023-04-28T12:32:24;15.10;99.90
11107;DHT22;5607;48.302;14.294;2023-04-28T12:35:22;15.20;99.90
11107;DHT22;5607;48.302;14.294;2023-04-28T12:38:10;15.20;99.90
11107;DHT22;5607;48.302;14.294;2023-04-28T12:40:56;15.10;99.90
11107;DHT22;5607;48.302;14.294;2023-04-28T12:43:43;15.20;99.90
11107;DHT22;5607;48.302;14.294;2023-04-28T12:46:30;15.20;99.90
11107;DHT22;5607;48.302;14.294;2023-04-28T12:49:17;15.10;99.90
11107;DHT22;5607;48.302;14.294;2023-04-28T12:52:03;14.90;99.90
11107;DHT22;5607;48.302;14.294;2023-04-28T12:54:49;14.90;99.90
11107;DHT22;5607;48.302;14.294;2023-04-28T12:57:36;14.80;1.00
11107;DHT22;5607;48.302;14.294;2023-04-28T13:00:22;14.80;1.00
11107;DHT22;5607;48.302;14.294;2023-04-28T13:03:10;15.00;1.00
11107;DHT22;5607;48.302;14.294;2023-04-28T13:05:56;15.10;1.00
11107;DHT22;5607;48.302;14.294;2023-04-28T13:08:42;15.10;1.00
11107;DHT22;5607;48.302;14.294;2023-04-28T13:11:29;15.20;1.00
11107;DHT22;5607;48.302;14.294;2023-04-28T13:14:16;15.20;99.90
11107;DHT22;5607;48.302;14.294;2023-04-28T13:17:03;15.30;99.90
11107;DHT22;5607;48.302;14.294;2023-04-28T13:19:49;15.20;1.00
11107;DHT22;5607;48.302;14.294;2023-04-28T13:22:36;15.20;1.00
11107;DHT22;5607;48.302;14.294;2023-04-28T13:25:22;15.20;1.00
11107;DHT22;5607;48.302;14.294;2023-04-28T13:28:08;15.10;1.00
11107;DHT22;5607;48.302;14.294;2023-04-28T13:30:54;15.10;1.00
11107;DHT22;5607;48.302;14.294;2023-04-28T13:33:41;15.00;1.00
11107;DHT22;5607;48.302;14.294;2023-04-28T13:36:27;14.90;1.00
11107;DHT22;5607;48.302;14.294;2023-04-28T13:39:18;14.90;1.00
11107;DHT22;5607;48.302;14.294;2023-04-28T13:42:05;14.90;1.00
11107;DHT22;5607;48.302;14.294;2023-04-28T13:44:52;15.10;1.00
11107;DHT22;5607;48.302;14.294;2023-04-28T13:47:38;15.20;1.00
11107;DHT22;5607;48.302;14.294;2023-04-28T13:50:24;15.10;1.00
11107;DHT22;5607;48.302;14.294;2023-04-28T13:53:11;15.10;1.00
11107;DHT22;5607;48.302;14.294;2023-04-28T13:55:57;15.00;1.00
11107;DHT22;5607;48.302;14.294;2023-04-28T13:58:43;14.90;1.00
11107;DHT22;5607;48.302;14.294;2023-04-28T14:01:30;14.80;1.00
11107;DHT22;5607;48.302;14.294;2023-04-28T14:04:16;14.90;1.00
11107;DHT22;5607;48.302;14.294;2023-04-28T14:07:02;14.80;1.00
11107;DHT22;5607;48.302;14.294;2023-04-28T14:09:48;14.70;1.00
11107;DHT22;5607;48.302;14.294;2023-04-28T14:12:35;14.60;1.00
11107;DHT22;5607;48.302;14.294;2023-04-28T14:15:21;14.50;1.00
11107;DHT22;5607;48.302;14.294;2023-04-28T14:18:08;14.50;1.00
11107;DHT22;5607;48.302;14.294;2023-04-28T14:20:55;14.40;1.00
11107;DHT22;5607;48.302;14.294;2023-04-28T14:23:41;14.30;1.00
11107;DHT22;5607;48.302;14.294;2023-04-28T14:26:27;14.40;1.00
11107;DHT22;5607;48.302;14.294;2023-04-28T14:29:14;14.40;1.00
11107;DHT22;5607;48.302;14.294;2023-04-28T14:32:00;14.50;1.00
11107;DHT22;5607;48.302;14.294;2023-04-28T14:34:47;14.60;1.00
11107;DHT22;5607;48.302;14.294;2023-04-28T14:37:34;14.50;1.00
11107;DHT22;5607;48.302;14.294;2023-04-28T14:40:21;14.60;1.00
11107;DHT22;5607;48.302;14.294;2023-04-28T14:43:07;14.70;1.00
11107;DHT22;5607;48.302;14.294;2023-04-28T14:45:53;15.00;1.00
11107;DHT22;5607;48.302;14.294;2023-04-28T14:48:40;15.00;1.00
11107;DHT22;5607;48.302;14.294;2023-04-28T14:51:26;15.10;1.00
11107;DHT22;5607;48.302;14.294;2023-04-28T14:54:12;15.10;1.00
11107;DHT22;5607;48.302;14.294;2023-04-28T14:56:59;14.90;1.00
11107;DHT22;5607;48.302;14.294;2023-04-28T14:59:45;14.80;1.00
11107;DHT22;5607;48.302;14.294;2023-04-28T15:02:31;14.80;1.00
11107;DHT22;5607;48.302;14.294;2023-04-28T15:05:17;14.70;1.00
11107;DHT22;5607;48.302;14.294;2023-04-28T15:08:04;14.70;1.00
11107;DHT22;5607;48.302;14.294;2023-04-28T15:10:50;14.70;1.00
11107;DHT22;5607;48.302;14.294;2023-04-28T15:13:37;14.70;1.00
11107;DHT22;5607;48.302;14.294;2023-04-28T15:16:23;14.70;1.00
11107;DHT22;5607;48.302;14.294;2023-04-28T15:19:09;14.60;1.00
11107;DHT22;5607;48.302;14.294;2023-04-28T15:21:56;14.50;1.00
11107;DHT22;5607;48.302;14.294;2023-04-28T15:24:42;14.40;1.00
11107;DHT22;5607;48.302;14.294;2023-04-28T15:27:29;14.30;1.00
11107;DHT22;5607;48.302;14.294;2023-04-28T15:30:15;14.30;1.00
11107;DHT22;5607;48.302;14.294;2023-04-28T15:33:01;14.20;1.00
11107;DHT22;5607;48.302;14.294;2023-04-28T15:35:49;14.10;1.00
11107;DHT22;5607;48.302;14.294;2023-04-28T15:38:35;14.00;1.00
11107;DHT22;5607;48.302;14.294;2023-04-28T15:41:23;14.00;1.00
11107;DHT22;5607;48.302;14.294;2023-04-28T15:44:11;14.00;1.00
11107;DHT22;5607;48.302;14.294;2023-04-28T15:46:57;14.20;1.00
11107;DHT22;5607;48.302;14.294;2023-04-28T15:49:43;14.10;1.00
11107;DHT22;5607;48.302;14.294;2023-04-28T15:52:29;14.10;1.00
11107;DHT22;5607;48.302;14.294;2023-04-28T15:55:16;14.10;2.20
11107;DHT22;5607;48.302;14.294;2023-04-28T15:58:02;14.00;7.80
11107;DHT22;5607;48.302;14.294;2023-04-28T16:00:49;14.00;1.00
11107;DHT22;5607;48.302;14.294;2023-04-28T16:03:36;13.90;5.00
11107;DHT22;5607;48.302;14.294;2023-04-28T16:06:22;13.90;10.00
11107;DHT22;5607;48.302;14.294;2023-04-28T16:12:33;13.80;1.00
11107;DHT22;5607;48.302;14.294;2023-04-28T16:15:19;13.80;2.10
11107;DHT22;5607;48.302;14.294;2023-04-28T16:18:05;13.80;2.40
11107;DHT22;5607;48.302;14.294;2023-04-28T16:20:52;13.70;1.00
11107;DHT22;5607;48.302;14.294;2023-04-28T16:23:38;13.60;1.00
11107;DHT22;5607;48.302;14.294;2023-04-28T16:26:25;13.60;19.40
11107;DHT22;5607;48.302;14.294;2023-04-28T16:29:11;13.60;31.10
11107;DHT22;5607;48.302;14.294;2023-04-28T16:31:57;13.60;51.30
11107;DHT22;5607;48.302;14.294;2023-04-28T16:34:44;13.60;61.30
11107;DHT22;5607;48.302;14.294;2023-04-28T16:37:30;13.50;46.70
11107;DHT22;5607;48.302;14.294;2023-04-28T16:40:17;13.40;54.50
11107;DHT22;5607;48.302;14.294;2023-04-28T16:43:03;13.40;87.60
11107;DHT22;5607;48.302;14.294;2023-04-28T16:45:49;13.40;92.00
11107;DHT22;5607;48.302;14.294;2023-04-28T16:48:35;13.40;86.20
11107;DHT22;5607;48.302;14.294;2023-04-28T16:51:22;13.30;86.70
11107;DHT22;5607;48.302;14.294;2023-04-28T16:54:08;13.40;74.40
11107;DHT22;5607;48.302;14.294;2023-04-28T16:56:54;13.40;85.00
11107;DHT22;5607;48.302;14.294;2023-04-28T16:59:41;13.40;99.90
11107;DHT22;5607;48.302;14.294;2023-04-28T17:02:27;13.40;99.90
11107;DHT22;5607;48.302;14.294;2023-04-28T17:05:14;13.40;99.90
11107;DHT22;5607;48.302;14.294;2023-04-28T17:08:00;13.50;99.90
11107;DHT22;5607;48.302;14.294;2023-04-28T17:10:47;13.50;99.90
11107;DHT22;5607;48.302;14.294;2023-04-28T17:13:33;13.50;99.90
11107;DHT22;5607;48.302;14.294;2023-04-28T17:16:22;13.40;99.90
11107;DHT22;5607;48.302;14.294;2023-04-28T17:19:08;13.40;99.90
11107;DHT22;5607;48.302;14.294;2023-04-28T17:21:54;13.50;99.90
11107;DHT22;5607;48.302;14.294;2023-04-28T17:24:41;13.50;99.90
11107;DHT22;5607;48.302;14.294;2023-04-28T17:27:28;13.50;99.90
11107;DHT22;5607;48.302;14.294;2023-04-28T17:30:15;13.50;99.90
11107;DHT22;5607;48.302;14.294;2023-04-28T17:33:01;13.50;80.00
11107;DHT22;5607;48.302;14.294;2023-04-28T17:35:47;13.40;70.30
11107;DHT22;5607;48.302;14.294;2023-04-28T17:38:34;13.50;73.40
11107;DHT22;5607;48.302;14.294;2023-04-28T17:41:20;13.50;59.90
11107;DHT22;5607;48.302;14.294;2023-04-28T17:44:07;13.50;76.30
11107;DHT22;5607;48.302;14.294;2023-04-28T17:46:53;13.50;77.60
11107;DHT22;5607;48.302;14.294;2023-04-28T17:49:40;13.40;85.20
11107;DHT22;5607;48.302;14.294;2023-04-28T17:52:26;13.30;99.90
11107;DHT22;5607;48.302;14.294;2023-04-28T17:55:13;13.20;99.90
11107;DHT22;5607;48.302;14.294;2023-04-28T17:57:59;13.20;99.90
11107;DHT22;5607;48.302;14.294;2023-04-28T18:00:45;13.10;99.90
11107;DHT22;5607;48.302;14.294;2023-04-28T18:03:35;13.10;99.90
11107;DHT22;5607;48.302;14.294;2023-04-28T18:06:22;12.90;99.90
11107;DHT22;5607;48.302;14.294;2023-04-28T18:09:08;12.90;99.90
11107;DHT22;5607;48.302;14.294;2023-04-28T18:11:55;12.90;99.90